createdAt,value
2018-04-18T00:00:34.529Z,18.9
2018-04-18T00:01:35.988Z,18.8
2018-04-18T00:02:37.544Z,18.8
2018-04-18T00:03:38.982Z,18.8
2018-04-18T00:04:40.470Z,18.8
2018-04-18T00:05:41.799Z,18.8
2018-04-18T00:06:43.136Z,18.7
2018-04-18T00:07:44.479Z,18.7
2018-04-18T00:08:45.851Z,18.7
2018-04-18T00:09:47.188Z,18.7
2018-04-18T00:10:48.597Z,18.7
2018-04-18T00:11:49.963Z,18.7
2018-04-18T00:12:51.269Z,18.6
2018-04-18T00:13:53.089Z,18.6
2018-04-18T00:14:54.447Z,18.6
2018-04-18T00:15:55.792Z,18.6
2018-04-18T00:16:57.164Z,18.6
2018-04-18T00:17:58.514Z,18.6
2018-04-18T00:18:59.902Z,18.5
2018-04-18T00:20:01.258Z,18.5
2018-04-18T00:21:02.584Z,18.5
2018-04-18T00:22:04.018Z,18.5
2018-04-18T00:23:05.363Z,18.5
2018-04-18T00:24:06.716Z,18.5
2018-04-18T00:25:08.031Z,18.5
2018-04-18T00:26:09.388Z,18.5
2018-04-18T00:27:10.713Z,18.5
2018-04-18T00:28:12.056Z,18.4
2018-04-18T00:29:13.418Z,18.4
2018-04-18T00:30:14.750Z,18.4
2018-04-18T00:31:16.070Z,18.4
2018-04-18T00:32:17.423Z,18.4
2018-04-18T00:33:18.798Z,18.4
2018-04-18T00:34:20.180Z,18.4
2018-04-18T00:35:21.545Z,18.4
2018-04-18T00:36:22.875Z,18.3
2018-04-18T00:37:24.195Z,18.3
2018-04-18T00:38:25.530Z,18.3
2018-04-18T00:39:26.866Z,18.3
2018-04-18T00:40:28.237Z,18.3
2018-04-18T00:41:29.553Z,18.2
2018-04-18T00:42:30.878Z,18.2
2018-04-18T00:43:32.210Z,18.2
2018-04-18T00:44:34.023Z,18.2
2018-04-18T00:45:35.402Z,18.1
2018-04-18T00:46:36.705Z,18.2
2018-04-18T00:47:38.027Z,18.1
2018-04-18T00:48:39.372Z,18.1
2018-04-18T00:49:40.785Z,18
2018-04-18T00:50:42.135Z,18
2018-04-18T00:51:43.599Z,18.1
2018-04-18T00:52:45.458Z,18.1
2018-04-18T00:53:46.874Z,18.1
2018-04-18T00:54:48.459Z,18.1
2018-04-18T00:55:49.852Z,18
2018-04-18T00:56:51.370Z,18
2018-04-18T00:57:52.747Z,18
2018-04-18T00:58:54.271Z,18
2018-04-18T00:59:55.840Z,18
2018-04-18T01:00:57.313Z,17.9
2018-04-18T01:01:58.652Z,17.9
2018-04-18T01:03:00.147Z,17.9
2018-04-18T01:04:01.490Z,17.9
2018-04-18T01:05:02.870Z,17.8
2018-04-18T01:06:04.216Z,17.8
2018-04-18T01:07:05.535Z,17.9
2018-04-18T01:08:07.172Z,17.8
2018-04-18T01:09:08.908Z,17.8
2018-04-18T01:10:10.292Z,17.8
2018-04-18T01:11:11.631Z,17.8
2018-04-18T01:12:12.960Z,17.8
2018-04-18T01:13:14.302Z,17.8
2018-04-18T01:14:15.640Z,17.7
2018-04-18T01:15:17.283Z,17.7
2018-04-18T01:16:18.613Z,17.7
2018-04-18T01:17:19.942Z,17.7
2018-04-18T01:18:21.309Z,17.7
2018-04-18T01:19:22.662Z,17.7
2018-04-18T01:20:24.050Z,17.7
2018-04-18T01:21:25.367Z,17.7
2018-04-18T01:22:26.691Z,17.5
2018-04-18T01:23:27.990Z,17.7
2018-04-18T01:24:32.004Z,17.7
2018-04-18T01:25:33.383Z,17.6
2018-04-18T01:26:34.920Z,17.6
2018-04-18T01:27:36.520Z,17.6
2018-04-18T01:28:37.974Z,17.6
2018-04-18T01:29:39.444Z,17.6
2018-04-18T01:30:40.863Z,17.6
2018-04-18T01:31:42.285Z,17.5
2018-04-18T01:32:43.717Z,17.5
2018-04-18T01:33:45.111Z,17.5
2018-04-18T01:34:46.492Z,17.5
2018-04-18T01:35:47.940Z,17.5
2018-04-18T01:36:49.353Z,17.5
2018-04-18T01:37:50.703Z,17.5
2018-04-18T01:38:52.040Z,17.5
2018-04-18T01:39:53.415Z,17.5
2018-04-18T01:40:54.965Z,17.4
2018-04-18T01:41:56.334Z,17.4
2018-04-18T01:42:57.692Z,17.4
2018-04-18T01:43:59.111Z,17.4
2018-04-18T01:45:00.496Z,17.4
2018-04-18T01:46:01.914Z,17.4
2018-04-18T01:47:03.363Z,17.4
2018-04-18T01:48:04.869Z,17.3
2018-04-18T01:49:06.245Z,17.3
2018-04-18T01:50:07.593Z,17.3
2018-04-18T01:51:09.209Z,17.3
2018-04-18T01:52:10.640Z,17.3
2018-04-18T01:53:12.007Z,17.2
2018-04-18T01:54:13.520Z,17.2
2018-04-18T01:55:15.111Z,17.1
2018-04-18T01:56:17.202Z,17.2
2018-04-18T01:57:19.078Z,17.1
2018-04-18T01:58:22.436Z,17.1
2018-04-18T01:59:24.042Z,17.1
2018-04-18T02:00:25.521Z,17.1
2018-04-18T02:01:27.009Z,17.1
2018-04-18T02:02:28.581Z,17.1
2018-04-18T02:03:30.455Z,17.1
2018-04-18T02:04:32.007Z,17.1
2018-04-18T02:05:33.680Z,17.1
2018-04-18T02:06:35.529Z,17
2018-04-18T02:07:37.197Z,17
2018-04-18T02:08:38.584Z,17
2018-04-18T02:09:40.329Z,17
2018-04-18T02:10:41.710Z,17
2018-04-18T02:11:43.163Z,17
2018-04-18T02:12:44.549Z,17
2018-04-18T02:13:45.936Z,17
2018-04-18T02:14:47.362Z,17
2018-04-18T02:15:49.265Z,16.9
2018-04-18T02:16:50.957Z,16.9
2018-04-18T02:17:52.320Z,16.9
2018-04-18T02:18:53.803Z,16.9
2018-04-18T02:19:55.183Z,16.9
2018-04-18T02:20:56.755Z,16.9
2018-04-18T02:21:58.178Z,16.9
2018-04-18T02:22:59.555Z,16.8
2018-04-18T02:24:00.943Z,16.8
2018-04-18T02:25:05.367Z,16.8
2018-04-18T02:26:06.708Z,16.8
2018-04-18T02:27:08.154Z,16.8
2018-04-18T02:28:09.700Z,16.8
2018-04-18T02:29:11.435Z,16.8
2018-04-18T02:30:12.845Z,16.8
2018-04-18T02:31:14.256Z,16.7
2018-04-18T02:32:15.713Z,16.7
2018-04-18T02:33:17.082Z,16.7
2018-04-18T02:34:18.476Z,16.7
2018-04-18T02:35:19.859Z,16.7
2018-04-18T02:36:21.234Z,16.6
2018-04-18T02:37:22.838Z,16.6
2018-04-18T02:38:24.178Z,16.6
2018-04-18T02:39:25.533Z,16.6
2018-04-18T02:40:26.912Z,16.6
2018-04-18T02:41:28.290Z,16.6
2018-04-18T02:42:29.700Z,16.6
2018-04-18T02:43:31.085Z,16.6
2018-04-18T02:44:32.464Z,16.6
2018-04-18T02:45:33.810Z,16.6
2018-04-18T02:46:35.205Z,16.6
2018-04-18T02:47:36.934Z,16.5
2018-04-18T02:48:38.264Z,16.5
2018-04-18T02:49:39.659Z,16.5
2018-04-18T02:50:41.043Z,16.4
2018-04-18T02:51:42.409Z,16.5
2018-04-18T02:52:43.951Z,16.5
2018-04-18T02:53:45.478Z,16.5
2018-04-18T02:54:46.880Z,16.5
2018-04-18T02:55:48.248Z,16.5
2018-04-18T02:56:49.644Z,16.5
2018-04-18T02:57:51.087Z,16.5
2018-04-18T02:58:52.469Z,16.4
2018-04-18T02:59:53.838Z,16.4
2018-04-18T03:00:55.193Z,16.4
2018-04-18T03:01:56.575Z,16.4
2018-04-18T03:02:58.178Z,16.4
2018-04-18T03:03:59.691Z,16.4
2018-04-18T03:05:01.250Z,16.4
2018-04-18T03:06:05.234Z,16.3
2018-04-18T03:07:07.025Z,16.4
2018-04-18T03:08:08.985Z,16.4
2018-04-18T03:09:10.739Z,16.3
2018-04-18T03:10:12.490Z,16.3
2018-04-18T03:11:14.129Z,16.3
2018-04-18T03:12:17.841Z,16.3
2018-04-18T03:13:19.538Z,16.3
2018-04-18T03:14:21.037Z,16.3
2018-04-18T03:15:22.634Z,16.3
2018-04-18T03:16:25.637Z,16.3
2018-04-18T03:17:27.526Z,16.1
2018-04-18T03:18:29.361Z,16.3
2018-04-18T03:19:30.972Z,16.2
2018-04-18T03:20:32.545Z,16.2
2018-04-18T03:21:33.951Z,16.2
2018-04-18T03:22:35.423Z,16.2
2018-04-18T03:23:36.836Z,16.2
2018-04-18T03:24:38.337Z,16.2
2018-04-18T03:25:39.748Z,16.1
2018-04-18T03:26:41.144Z,16.1
2018-04-18T03:27:42.495Z,16.1
2018-04-18T03:28:43.888Z,16.1
2018-04-18T03:29:45.238Z,16.1
2018-04-18T03:30:46.697Z,16.1
2018-04-18T03:31:48.080Z,16.1
2018-04-18T03:32:49.456Z,16.1
2018-04-18T03:33:50.843Z,16.1
2018-04-18T03:34:52.206Z,16
2018-04-18T03:35:53.614Z,16
2018-04-18T03:36:57.430Z,16
2018-04-18T03:37:58.781Z,16
2018-04-18T03:39:00.446Z,16
2018-04-18T03:40:01.813Z,16
2018-04-18T03:41:03.263Z,16
2018-04-18T03:42:04.789Z,16
2018-04-18T03:43:06.168Z,16
2018-04-18T03:44:07.602Z,15.9
2018-04-18T03:45:09.052Z,15.9
2018-04-18T03:46:10.457Z,15.9
2018-04-18T03:47:13.375Z,15.9
2018-04-18T03:48:14.824Z,15.8
2018-04-18T03:49:16.536Z,15.9
2018-04-18T03:50:17.925Z,15.9
2018-04-18T03:51:19.372Z,15.9
2018-04-18T03:52:20.771Z,15.9
2018-04-18T03:53:22.118Z,15.9
2018-04-18T03:54:23.520Z,15.8
2018-04-18T03:55:24.861Z,15.7
2018-04-18T03:56:26.171Z,15.8
2018-04-18T03:57:27.492Z,15.8
2018-04-18T03:58:28.844Z,15.7
2018-04-18T03:59:30.194Z,15.8
2018-04-18T04:00:31.539Z,15.8
2018-04-18T04:01:32.854Z,15.8
2018-04-18T04:02:34.202Z,15.8
2018-04-18T04:03:35.498Z,15.8
2018-04-18T04:04:36.885Z,15.8
2018-04-18T04:05:38.219Z,15.7
2018-04-18T04:06:39.579Z,15.7
2018-04-18T04:07:40.899Z,15.7
2018-04-18T04:08:42.215Z,15.7
2018-04-18T04:09:43.751Z,15.7
2018-04-18T04:10:45.140Z,15.7
2018-04-18T04:11:46.490Z,15.7
2018-04-18T04:12:47.805Z,15.7
2018-04-18T04:13:49.262Z,15.6
2018-04-18T04:14:50.681Z,15.6
2018-04-18T04:15:52.034Z,15.6
2018-04-18T04:16:53.464Z,15.6
2018-04-18T04:17:54.937Z,15.5
2018-04-18T04:18:56.364Z,15.6
2018-04-18T04:19:58.170Z,15.5
2018-04-18T04:20:59.596Z,15.6
2018-04-18T04:22:00.977Z,15.6
2018-04-18T04:23:02.394Z,15.6
2018-04-18T04:24:03.746Z,15.6
2018-04-18T04:25:05.342Z,15.4
2018-04-18T04:26:06.693Z,15.6
2018-04-18T04:27:08.032Z,15.6
2018-04-18T04:28:09.601Z,15.6
2018-04-18T04:29:10.928Z,15.5
2018-04-18T04:30:12.306Z,15.5
2018-04-18T04:31:13.618Z,15.5
2018-04-18T04:32:14.963Z,15.5
2018-04-18T04:33:16.277Z,15.5
2018-04-18T04:34:17.606Z,15.5
2018-04-18T04:35:18.984Z,15.6
2018-04-18T04:36:20.344Z,15.5
2018-04-18T04:37:21.695Z,15.5
2018-04-18T04:38:23.047Z,15.5
2018-04-18T04:39:24.417Z,15.5
2018-04-18T04:40:25.843Z,15.5
2018-04-18T04:41:27.196Z,15.5
2018-04-18T04:42:28.524Z,15.6
2018-04-18T04:43:29.879Z,15.6
2018-04-18T04:44:31.296Z,15.6
2018-04-18T04:45:32.663Z,15.6
2018-04-18T04:46:33.966Z,15.6
2018-04-18T04:47:35.323Z,15.6
2018-04-18T04:48:36.648Z,15.7
2018-04-18T04:49:37.975Z,15.7
2018-04-18T04:50:39.722Z,15.7
2018-04-18T04:51:45.181Z,15.7
2018-04-18T04:52:46.976Z,15.8
2018-04-18T04:53:48.379Z,15.8
2018-04-18T04:54:49.738Z,15.8
2018-04-18T04:55:51.112Z,15.8
2018-04-18T04:56:52.486Z,15.8
2018-04-18T04:57:53.816Z,15.8
2018-04-18T04:58:55.142Z,15.9
2018-04-18T04:59:56.588Z,15.9
2018-04-18T05:00:57.964Z,15.9
2018-04-18T05:01:59.517Z,15.9
2018-04-18T05:03:00.882Z,16
2018-04-18T05:04:02.281Z,16
2018-04-18T05:05:03.947Z,16
2018-04-18T05:06:06.283Z,16.1
2018-04-18T05:07:07.629Z,16.1
2018-04-18T05:08:09.039Z,16.2
2018-04-18T05:09:10.398Z,16.2
2018-04-18T05:10:11.771Z,16.1
2018-04-18T05:11:13.168Z,16.3
2018-04-18T05:12:14.504Z,16.3
2018-04-18T05:13:15.853Z,16.3
2018-04-18T05:14:17.191Z,16.3
2018-04-18T05:15:18.605Z,16.4
2018-04-18T05:16:20.010Z,16.5
2018-04-18T05:17:22.879Z,16.5
2018-04-18T05:18:24.344Z,16.6
2018-04-18T05:19:25.726Z,16.6
2018-04-18T05:20:27.143Z,16.7
2018-04-18T05:21:28.905Z,16.7
2018-04-18T05:22:30.382Z,16.8
2018-04-18T05:23:31.889Z,16.8
2018-04-18T05:24:33.355Z,16.9
2018-04-18T05:25:34.831Z,16.8
2018-04-18T05:26:36.369Z,17
2018-04-18T05:27:37.847Z,17
2018-04-18T05:28:39.237Z,17
2018-04-18T05:29:40.723Z,17
2018-04-18T05:30:44.973Z,17
2018-04-18T05:31:49.553Z,17.1
2018-04-18T05:32:53.370Z,17.2
2018-04-18T05:33:57.678Z,17.2
2018-04-18T05:34:59.337Z,17.3
2018-04-18T05:36:01.078Z,17.4
2018-04-18T05:37:02.648Z,17.4
2018-04-18T05:38:04.176Z,17.5
2018-04-18T05:39:05.709Z,17.5
2018-04-18T05:40:07.204Z,17.6
2018-04-18T05:41:08.567Z,17.7
2018-04-18T05:42:12.888Z,17.8
2018-04-18T05:43:14.659Z,17.8
2018-04-18T05:44:16.349Z,17.8
2018-04-18T05:45:17.916Z,18
2018-04-18T05:46:20.457Z,18.1
2018-04-18T05:47:26.668Z,18.1
2018-04-18T05:48:31.752Z,18.1
2018-04-18T05:49:35.981Z,18.2
2018-04-18T05:50:39.837Z,18.3
2018-04-18T05:51:41.313Z,18.4
2018-04-18T05:52:42.813Z,18.4
2018-04-18T05:53:44.235Z,18.5
2018-04-18T05:54:45.723Z,18.5
2018-04-18T05:55:47.208Z,18.5
2018-04-18T05:56:50.677Z,18.5
2018-04-18T05:57:52.154Z,18.5
2018-04-18T05:58:53.639Z,18.8
2018-04-18T05:59:55.543Z,18.9
2018-04-18T06:00:58.071Z,18.7
2018-04-18T06:01:59.513Z,19
2018-04-18T06:03:01.018Z,19
2018-04-18T06:04:02.356Z,19.2
2018-04-18T06:05:03.723Z,19.3
2018-04-18T06:06:06.746Z,19.3
2018-04-18T06:07:08.110Z,19.4
2018-04-18T06:08:09.554Z,19.5
2018-04-18T06:09:10.915Z,19.6
2018-04-18T06:10:12.267Z,19.7
2018-04-18T06:11:13.696Z,19.9
2018-04-18T06:12:15.024Z,19.9
2018-04-18T06:13:16.760Z,20
2018-04-18T06:14:18.089Z,20
2018-04-18T06:15:19.504Z,20.1
2018-04-18T06:16:21.048Z,20.1
2018-04-18T06:17:25.327Z,20.3
2018-04-18T06:18:26.741Z,20.5
2018-04-18T06:19:28.115Z,20.5
2018-04-18T06:20:29.446Z,20.8
2018-04-18T06:21:30.912Z,20.8
2018-04-18T06:22:32.273Z,21
2018-04-18T06:23:33.741Z,21.1
2018-04-18T06:24:35.058Z,21.2
2018-04-18T06:25:36.422Z,21.4
2018-04-18T06:26:37.752Z,21.3
2018-04-18T06:27:39.124Z,21.5
2018-04-18T06:28:40.648Z,21.5
2018-04-18T06:29:41.979Z,21.6
2018-04-18T06:30:43.317Z,21.7
2018-04-18T06:31:44.670Z,21.7
2018-04-18T06:32:46.023Z,21.8
2018-04-18T06:33:47.391Z,21.9
2018-04-18T06:34:48.715Z,21.9
2018-04-18T06:35:51.109Z,22
2018-04-18T06:36:52.566Z,22.2
2018-04-18T06:37:54.071Z,22.2
2018-04-18T06:38:55.516Z,22.3
2018-04-18T06:39:57.066Z,22.3
2018-04-18T06:40:58.376Z,22.5
2018-04-18T06:41:59.877Z,22.5
2018-04-18T06:43:01.358Z,22.5
2018-04-18T06:44:02.752Z,22.6
2018-04-18T06:45:04.174Z,22.7
2018-04-18T06:46:05.541Z,22.8
2018-04-18T06:47:06.923Z,22.9
2018-04-18T06:48:08.303Z,22.9
2018-04-18T06:49:09.706Z,23
2018-04-18T06:50:11.190Z,23.1
2018-04-18T06:51:12.726Z,23.2
2018-04-18T06:52:14.119Z,23.3
2018-04-18T06:53:15.482Z,23.4
2018-04-18T06:54:16.954Z,23.4
2018-04-18T06:55:18.322Z,23.5
2018-04-18T06:56:19.698Z,23.6
2018-04-18T06:57:21.105Z,23.7
2018-04-18T06:58:22.518Z,23.8
2018-04-18T06:59:24.088Z,23.8
2018-04-18T07:00:25.732Z,23.8
2018-04-18T07:01:27.225Z,24
2018-04-18T07:02:28.745Z,24.1
2018-04-18T07:03:31.062Z,24.1
2018-04-18T07:04:32.719Z,24.2
2018-04-18T07:05:39.537Z,24.3
2018-04-18T07:06:44.086Z,24.4
2018-04-18T07:07:45.485Z,24.5
2018-04-18T07:08:47.075Z,24.5
2018-04-18T07:09:48.801Z,24.5
2018-04-18T07:10:50.318Z,24.6
2018-04-18T07:11:52.187Z,24.7
2018-04-18T07:12:53.682Z,24.6
2018-04-18T07:13:57.398Z,24.8
2018-04-18T07:14:59.104Z,24.8
2018-04-18T07:16:00.667Z,25
2018-04-18T07:17:05.270Z,25
2018-04-18T07:18:08.899Z,25.1
2018-04-18T07:19:11.201Z,25.1
2018-04-18T07:20:12.952Z,25.1
2018-04-18T07:21:14.429Z,25.1
2018-04-18T07:22:17.256Z,25.3
2018-04-18T07:23:19.872Z,25.4
2018-04-18T07:24:24.518Z,25.4
2018-04-18T07:25:26.717Z,25.4
2018-04-18T07:26:28.226Z,25.5
2018-04-18T07:27:29.934Z,25.6
2018-04-18T07:28:33.262Z,25.6
2018-04-18T07:29:34.810Z,25.7
2018-04-18T07:30:36.409Z,25.7
2018-04-18T07:31:38.118Z,25.7
2018-04-18T07:32:39.782Z,25.8
2018-04-18T07:33:42.551Z,25.9
2018-04-18T07:34:44.146Z,25.9
2018-04-18T07:35:46.537Z,26
2018-04-18T07:36:48.475Z,26
2018-04-18T07:37:51.582Z,26.1
2018-04-18T07:38:56.701Z,26.1
2018-04-18T07:39:58.383Z,26.2
2018-04-18T07:41:00.367Z,26.3
2018-04-18T07:42:02.869Z,26.2
2018-04-18T07:43:04.969Z,26.5
2018-04-18T07:44:08.436Z,26.6
2018-04-18T07:45:11.854Z,26.7
2018-04-18T07:46:19.153Z,26.6
2018-04-18T07:47:22.467Z,26.6
2018-04-18T07:48:24.106Z,26.6
2018-04-18T07:49:25.506Z,26.8
2018-04-18T07:50:28.782Z,26.8
2018-04-18T07:51:30.381Z,26.9
2018-04-18T07:52:32.546Z,26.9
2018-04-18T07:53:35.200Z,27
2018-04-18T07:54:39.205Z,27.1
2018-04-18T07:55:43.300Z,27.1
2018-04-18T07:56:44.822Z,27.2
2018-04-18T07:57:46.253Z,27.2
2018-04-18T07:58:48.760Z,27.3
2018-04-18T07:59:50.232Z,27.4
2018-04-18T08:00:56.032Z,27.3
2018-04-18T08:01:57.553Z,27.4
2018-04-18T08:02:59.313Z,27.4
2018-04-18T08:04:00.744Z,27.6
2018-04-18T08:05:06.426Z,27.6
2018-04-18T08:06:07.842Z,27.8
2018-04-18T08:07:09.242Z,27.7
2018-04-18T08:08:10.711Z,27.8
2018-04-18T08:09:12.549Z,27.8
2018-04-18T08:10:14.129Z,27.9
2018-04-18T08:11:16.939Z,27.9
2018-04-18T08:12:25.511Z,27.9
2018-04-18T08:13:26.941Z,28
2018-04-18T08:14:28.303Z,28
2018-04-18T08:15:29.741Z,27.9
2018-04-18T08:16:31.068Z,28
2018-04-18T08:17:32.624Z,28.1
2018-04-18T08:18:34.713Z,28.1
2018-04-18T08:19:36.142Z,28.1
2018-04-18T08:20:40.850Z,28.2
2018-04-18T08:21:43.415Z,28.1
2018-04-18T08:22:44.823Z,28.3
2018-04-18T08:23:46.639Z,28.3
2018-04-18T08:24:49.820Z,28.4
2018-04-18T08:25:53.912Z,28.3
2018-04-18T08:26:55.514Z,28.4
2018-04-18T08:27:58.974Z,28.4
2018-04-18T08:29:00.573Z,28.3
2018-04-18T08:30:05.596Z,28.3
2018-04-18T08:31:07.077Z,28.4
2018-04-18T08:32:11.257Z,28.3
2018-04-18T08:33:12.709Z,28.4
2018-04-18T08:34:15.115Z,28.4
2018-04-18T08:35:16.519Z,28.3
2018-04-18T08:36:19.647Z,28.4
2018-04-18T08:37:21.237Z,28.3
2018-04-18T08:38:28.280Z,28.2
2018-04-18T08:39:30.701Z,28.3
2018-04-18T08:40:34.981Z,28.3
2018-04-18T08:41:38.320Z,28.3
2018-04-18T08:42:39.750Z,28.2
2018-04-18T08:43:41.269Z,28.2
2018-04-18T08:44:42.681Z,28.1
2018-04-18T08:45:44.113Z,28.3
2018-04-18T08:46:45.452Z,28.3
2018-04-18T08:47:46.825Z,28.2
2018-04-18T08:48:49.435Z,28.2
2018-04-18T08:49:53.662Z,28.1
2018-04-18T08:50:55.104Z,28.1
2018-04-18T08:51:59.095Z,28.1
2018-04-18T08:53:06.430Z,28.1
2018-04-18T08:54:08.083Z,28
2018-04-18T08:55:09.492Z,28.1
2018-04-18T08:56:10.911Z,28.1
2018-04-18T08:57:15.080Z,28.1
2018-04-18T08:58:16.505Z,28.1
2018-04-18T08:59:18.285Z,28.1
2018-04-18T09:00:20.025Z,28
2018-04-18T09:01:21.406Z,28
2018-04-18T09:02:22.849Z,28
2018-04-18T09:03:26.954Z,28
2018-04-18T09:04:28.440Z,27.9
2018-04-18T09:05:29.866Z,28
2018-04-18T09:06:31.541Z,28
2018-04-18T09:07:33.984Z,28
2018-04-18T09:08:35.458Z,27.9
2018-04-18T09:09:37.049Z,27.9
2018-04-18T09:10:39.305Z,27.9
2018-04-18T09:11:41.255Z,28
2018-04-18T09:12:45.096Z,27.8
2018-04-18T09:13:47.696Z,28
2018-04-18T09:14:49.904Z,28
2018-04-18T09:15:54.469Z,28
2018-04-18T09:16:55.929Z,28
2018-04-18T09:17:59.606Z,28
2018-04-18T09:19:01.045Z,27.9
2018-04-18T09:20:04.135Z,28
2018-04-18T09:21:05.595Z,28
2018-04-18T09:22:09.712Z,28
2018-04-18T09:23:11.375Z,28
2018-04-18T09:24:12.847Z,28
2018-04-18T09:26:22.032Z,28
2018-04-18T09:27:23.611Z,28
2018-04-18T09:28:24.983Z,28.1
2018-04-18T09:29:26.332Z,28.1
2018-04-18T09:30:28.982Z,28.1
2018-04-18T09:31:30.448Z,28
2018-04-18T09:32:32.295Z,28.1
2018-04-18T09:33:33.841Z,28.1
2018-04-18T09:34:35.351Z,28.1
2018-04-18T09:35:36.924Z,28.1
2018-04-18T09:36:38.519Z,28.1
2018-04-18T09:37:40.220Z,28.1
2018-04-18T09:38:41.822Z,28.2
2018-04-18T09:39:47.857Z,28.1
2018-04-18T09:40:49.532Z,28.1
2018-04-18T09:41:56.332Z,28.1
2018-04-18T09:42:57.719Z,28.1
2018-04-18T09:43:59.075Z,28.2
2018-04-18T09:45:00.429Z,28.2
2018-04-18T09:46:01.921Z,28.2
2018-04-18T09:47:03.689Z,28.2
2018-04-18T09:48:05.108Z,28.1
2018-04-18T09:49:06.583Z,28.2
2018-04-18T09:50:08.175Z,28.1
2018-04-18T09:51:09.631Z,28.1
2018-04-18T09:52:11.036Z,28.2
2018-04-18T09:53:12.542Z,28.2
2018-04-18T09:54:13.927Z,28.2
2018-04-18T09:55:15.320Z,28.2
2018-04-18T09:56:16.779Z,28.1
2018-04-18T09:57:18.149Z,28.2
2018-04-18T09:58:19.556Z,28.2
2018-04-18T09:59:20.891Z,28.2
2018-04-18T10:00:24.291Z,28.1
2018-04-18T10:01:26.137Z,28.1
2018-04-18T10:02:33.017Z,28.2
2018-04-18T10:03:34.379Z,28.3
2018-04-18T10:04:35.746Z,28.1
2018-04-18T10:05:37.201Z,28.2
2018-04-18T10:06:38.892Z,28.2
2018-04-18T10:07:40.428Z,28.1
2018-04-18T10:08:42.059Z,28
2018-04-18T10:09:43.520Z,28.1
2018-04-18T10:10:44.915Z,28.1
2018-04-18T10:11:46.816Z,28.1
2018-04-18T10:12:48.980Z,28.1
2018-04-18T10:13:50.617Z,28.1
2018-04-18T10:15:02.711Z,28
2018-04-18T10:16:11.086Z,28
2018-04-18T10:17:14.852Z,28.1
2018-04-18T10:18:28.198Z,28.1
2018-04-18T10:19:37.379Z,28
2018-04-18T10:20:40.844Z,28
2018-04-18T10:21:42.855Z,28
2018-04-18T10:22:45.175Z,28
2018-04-18T10:23:46.648Z,28
2018-04-18T10:24:48.082Z,28
2018-04-18T10:25:49.704Z,28
2018-04-18T10:26:51.404Z,28
2018-04-18T10:27:53.065Z,27.9
2018-04-18T10:28:54.532Z,28
2018-04-18T10:29:55.992Z,28
2018-04-18T10:30:57.561Z,27.8
2018-04-18T10:31:59.444Z,27.8
2018-04-18T10:33:00.952Z,27.9
2018-04-18T10:34:02.622Z,27.9
2018-04-18T10:35:04.176Z,27.9
2018-04-18T10:36:07.775Z,27.9
2018-04-18T10:37:09.172Z,28
2018-04-18T10:38:10.899Z,28
2018-04-18T10:39:12.385Z,28
2018-04-18T10:40:13.843Z,28
2018-04-18T10:41:15.312Z,28
2018-04-18T10:42:16.781Z,28
2018-04-18T10:43:18.336Z,27.9
2018-04-18T10:44:20.052Z,27.9
2018-04-18T10:45:25.369Z,27.9
2018-04-18T10:46:26.826Z,27.9
2018-04-18T10:47:28.289Z,27.8
2018-04-18T10:48:29.965Z,27.8
2018-04-18T10:49:31.407Z,27.8
2018-04-18T10:50:32.887Z,27.8
2018-04-18T10:51:34.336Z,27.8
2018-04-18T10:52:36.948Z,27.8
2018-04-18T10:53:38.441Z,27.8
2018-04-18T10:54:39.915Z,27.9
2018-04-18T10:55:41.328Z,27.9
2018-04-18T10:56:45.829Z,27.9
2018-04-18T10:57:47.485Z,27.9
2018-04-18T10:58:48.961Z,27.9
2018-04-18T10:59:50.356Z,27.9
2018-04-18T11:00:51.809Z,27.8
2018-04-18T11:01:53.238Z,27.8
2018-04-18T11:02:54.854Z,27.7
2018-04-18T11:03:56.587Z,27.7
2018-04-18T11:04:58.260Z,27.6
2018-04-18T11:05:59.813Z,27.6
2018-04-18T11:07:07.559Z,27.6
2018-04-18T11:08:18.607Z,27.6
2018-04-18T11:09:20.207Z,27.6
2018-04-18T11:10:21.867Z,27.6
2018-04-18T11:11:23.929Z,27.7
2018-04-18T11:12:25.528Z,27.6
2018-04-18T11:13:27.816Z,27.7
2018-04-18T11:14:31.417Z,27.7
2018-04-18T11:15:47.519Z,27.7
2018-04-18T11:16:51.140Z,27.8
2018-04-18T11:17:53.072Z,27.7
2018-04-18T11:18:54.744Z,27.6
2018-04-18T11:20:05.180Z,27.7
2018-04-18T11:21:12.085Z,27.7
2018-04-18T11:22:29.668Z,27.6
2018-04-18T11:23:31.845Z,27.7
2018-04-18T11:24:34.067Z,27.7
2018-04-18T11:27:01.887Z,27.6
2018-04-18T11:28:03.602Z,27.6
2018-04-18T11:29:06.006Z,27.6
2018-04-18T11:30:08.751Z,27.6
2018-04-18T11:31:13.073Z,27.6
2018-04-18T11:32:14.578Z,27.6
2018-04-18T11:33:17.064Z,27.5
2018-04-18T11:34:25.771Z,27.5
2018-04-18T11:35:27.622Z,27.5
2018-04-18T11:36:29.626Z,27.5
2018-04-18T11:37:34.211Z,27.4
2018-04-18T11:38:35.911Z,27.5
2018-04-18T11:39:37.821Z,27.5
2018-04-18T11:40:40.104Z,27.5
2018-04-18T11:41:46.101Z,27.5
2018-04-18T11:42:47.742Z,27.5
2018-04-18T11:43:50.094Z,27.5
2018-04-18T11:44:51.624Z,27.5
2018-04-18T11:45:55.357Z,27.4
2018-04-18T11:47:05.467Z,27.4
2018-04-18T11:48:07.133Z,27.4
2018-04-18T11:49:08.676Z,27.4
2018-04-18T11:50:10.283Z,27.4
2018-04-18T11:51:11.900Z,27.4
2018-04-18T11:52:13.659Z,27.4
2018-04-18T11:53:15.340Z,27.3
2018-04-18T11:54:16.851Z,27.3
2018-04-18T11:55:18.370Z,27.3
2018-04-18T11:56:20.112Z,27.3
2018-04-18T11:57:21.735Z,27.2
2018-04-18T11:58:25.660Z,27.2
2018-04-18T11:59:27.621Z,27.2
2018-04-18T12:00:31.485Z,27.2
2018-04-18T12:01:35.995Z,27.2
2018-04-18T12:02:37.489Z,27.2
2018-04-18T12:03:38.993Z,27.2
2018-04-18T12:04:40.427Z,27.2
2018-04-18T12:05:41.943Z,27.1
2018-04-18T12:06:45.340Z,27.1
2018-04-18T12:07:47.393Z,27.1
2018-04-18T12:08:50.772Z,27
2018-04-18T12:09:52.233Z,27.2
2018-04-18T12:10:55.796Z,27.2
2018-04-18T12:11:57.605Z,27.2
2018-04-18T12:13:01.110Z,27.2
2018-04-18T12:14:02.742Z,27.2
2018-04-18T12:15:04.975Z,27.1
2018-04-18T12:16:06.804Z,27.2
2018-04-18T12:17:10.086Z,27.2
2018-04-18T12:18:11.994Z,27.1
2018-04-18T12:19:16.898Z,27.1
2018-04-18T12:20:18.586Z,27.1
2018-04-18T12:21:29.073Z,27.1
2018-04-18T12:22:30.769Z,27.1
2018-04-18T12:23:32.460Z,27.1
2018-04-18T12:24:34.397Z,27.1
2018-04-18T12:25:36.179Z,27.1
2018-04-18T12:26:37.814Z,27.1
2018-04-18T12:27:39.331Z,27.1
2018-04-18T12:28:40.841Z,27.1
2018-04-18T12:29:45.281Z,27.1
2018-04-18T12:30:46.901Z,27.1
2018-04-18T12:31:48.728Z,27.1
2018-04-18T12:32:50.446Z,27.1
2018-04-18T12:33:51.968Z,27.1
2018-04-18T12:34:53.399Z,27.1
2018-04-18T12:35:55.139Z,27.1
2018-04-18T12:36:56.559Z,27.1
2018-04-18T12:37:58.429Z,27
2018-04-18T12:39:00.079Z,27.1
2018-04-18T12:40:01.758Z,27.1
2018-04-18T12:41:08.384Z,27.1
2018-04-18T12:42:09.860Z,27.1
2018-04-18T12:43:11.345Z,27.1
2018-04-18T12:44:15.116Z,27
2018-04-18T12:45:16.597Z,27
2018-04-18T12:46:18.094Z,27
2018-04-18T12:47:19.688Z,26.9
2018-04-18T12:48:21.245Z,27
2018-04-18T12:49:22.958Z,27
2018-04-18T12:50:31.109Z,27
2018-04-18T12:51:32.519Z,27
2018-04-18T12:52:34.096Z,27
2018-04-18T12:53:35.578Z,27
2018-04-18T12:54:37.487Z,26.9
2018-04-18T12:55:39.641Z,26.9
2018-04-18T12:56:46.291Z,26.9
2018-04-18T12:57:47.725Z,27
2018-04-18T12:58:49.237Z,26.9
2018-04-18T12:59:52.035Z,27
2018-04-18T13:00:53.701Z,27
2018-04-18T13:01:55.324Z,27
2018-04-18T13:02:57.484Z,27
2018-04-18T13:03:59.035Z,27
2018-04-18T13:05:01.085Z,27
2018-04-18T13:06:07.095Z,27
2018-04-18T13:07:08.554Z,27
2018-04-18T13:08:10.027Z,26.9
2018-04-18T13:09:12.704Z,26.9
2018-04-18T13:10:16.691Z,27
2018-04-18T13:11:18.250Z,27
2018-04-18T13:12:19.888Z,26.9
2018-04-18T13:13:21.921Z,26.9
2018-04-18T13:14:23.434Z,26.9
2018-04-18T13:16:32.099Z,26.9
2018-04-18T13:17:34.140Z,26.8
2018-04-18T13:18:35.753Z,26.9
2018-04-18T13:19:38.453Z,26.9
2018-04-18T13:20:41.143Z,26.8
2018-04-18T13:21:44.623Z,26.9
2018-04-18T13:22:46.806Z,26.9
2018-04-18T13:23:48.259Z,26.8
2018-04-18T13:24:50.034Z,26.9
2018-04-18T13:25:56.535Z,26.8
2018-04-18T13:26:57.958Z,26.8
2018-04-18T13:27:59.551Z,26.8
2018-04-18T13:29:01.331Z,26.8
2018-04-18T13:30:05.514Z,26.7
2018-04-18T13:31:06.971Z,26.8
2018-04-18T13:32:08.496Z,26.8
2018-04-18T13:33:12.532Z,26.8
2018-04-18T13:34:13.975Z,26.8
2018-04-18T13:35:15.401Z,26.8
2018-04-18T13:36:16.814Z,26.8
2018-04-18T13:37:18.223Z,26.7
2018-04-18T13:38:20.481Z,26.8
2018-04-18T13:39:22.982Z,26.7
2018-04-18T13:40:24.569Z,26.8
2018-04-18T13:41:28.215Z,26.8
2018-04-18T13:42:31.129Z,26.8
2018-04-18T13:43:32.903Z,26.8
2018-04-18T13:44:38.763Z,26.8
2018-04-18T13:45:40.218Z,26.8
2018-04-18T13:46:42.790Z,26.8
2018-04-18T13:47:48.255Z,26.8
2018-04-18T13:48:49.708Z,26.8
2018-04-18T13:49:51.271Z,26.6
2018-04-18T13:50:52.966Z,26.8
2018-04-18T13:51:55.567Z,26.6
2018-04-18T13:52:57.079Z,26.7
2018-04-18T13:53:58.654Z,26.7
2018-04-18T13:55:00.919Z,26.7
2018-04-18T13:56:02.654Z,26.7
2018-04-18T13:57:04.308Z,26.6
2018-04-18T13:58:07.217Z,26.6